createdAt,value
2022-08-26T00:01:05.624Z,24.30
2022-08-26T00:03:52.955Z,24.30
2022-08-26T00:06:40.197Z,24.20
2022-08-26T00:09:28.413Z,24.30
2022-08-26T00:12:14.297Z,23.80
2022-08-26T00:15:00.693Z,24.30
2022-08-26T00:17:47.589Z,24.10
2022-08-26T00:20:34.874Z,24.10
2022-08-26T00:23:24.204Z,24.10
2022-08-26T00:26:11.012Z,24.00
2022-08-26T00:28:56.942Z,24.10
2022-08-26T00:31:42.937Z,23.90
2022-08-26T00:34:31.222Z,24.00
2022-08-26T00:37:17.242Z,24.00
2022-08-26T00:42:51.530Z,24.00
2022-08-26T00:45:55.351Z,23.70
2022-08-26T00:48:43.857Z,23.90
2022-08-26T00:54:21.112Z,23.60
2022-08-26T00:57:15.922Z,23.70
2022-08-26T01:00:07.154Z,23.80
2022-08-26T01:02:54.838Z,23.30
2022-08-26T01:05:42.304Z,23.70
2022-08-26T01:08:28.455Z,23.60
2022-08-26T01:11:15.203Z,23.10
2022-08-26T01:14:04.715Z,23.40
2022-08-26T01:16:52.332Z,23.60
2022-08-26T01:19:48.793Z,23.60
2022-08-26T01:23:03.143Z,23.60
2022-08-26T01:25:54.868Z,23.60
2022-08-26T01:28:42.495Z,23.60
2022-08-26T01:31:46.426Z,23.60
2022-08-26T01:34:37.502Z,23.60
2022-08-26T01:37:27.882Z,23.60
2022-08-26T01:40:20.519Z,23.70
2022-08-26T01:43:08.379Z,23.60
2022-08-26T01:45:56.904Z,23.70
2022-08-26T01:48:44.861Z,23.60
2022-08-26T01:51:37.060Z,23.50
2022-08-26T01:54:24.525Z,23.50
2022-08-26T01:57:10.125Z,23.80
2022-08-26T01:59:59.874Z,23.50
2022-08-26T02:02:48.564Z,23.50
2022-08-26T02:05:34.481Z,23.50
2022-08-26T02:08:26.461Z,23.50
2022-08-26T02:11:13.043Z,23.10
2022-08-26T02:14:09.919Z,23.40
2022-08-26T02:16:56.875Z,23.50
2022-08-26T02:19:46.609Z,23.40
2022-08-26T02:22:32.956Z,23.40
2022-08-26T02:25:29.945Z,23.30
2022-08-26T02:31:05.599Z,23.30
2022-08-26T02:33:53.387Z,23.20
2022-08-26T02:36:40.177Z,23.20
2022-08-26T02:39:26.074Z,23.30
2022-08-26T02:42:12.443Z,23.30
2022-08-26T02:44:58.567Z,23.30
2022-08-26T02:47:45.655Z,23.20
2022-08-26T02:50:32.305Z,23.50
2022-08-26T02:53:24.477Z,23.40
2022-08-26T02:58:57.304Z,23.20
2022-08-26T03:01:45.163Z,23.10
2022-08-26T03:04:33.450Z,23.10
2022-08-26T03:10:08.228Z,23.10
2022-08-26T03:12:54.443Z,23.10
2022-08-26T03:15:41.156Z,23.00
2022-08-26T03:18:26.788Z,23.00
2022-08-26T03:21:16.417Z,22.80
2022-08-26T03:24:04.151Z,22.80
2022-08-26T03:26:52.405Z,22.80
2022-08-26T03:29:57.622Z,22.80
2022-08-26T03:32:43.497Z,22.70
2022-08-26T03:35:29.705Z,22.60
2022-08-26T03:41:02.658Z,22.40
2022-08-26T03:43:50.743Z,21.60
2022-08-26T03:46:37.286Z,22.70
2022-08-26T03:49:23.511Z,22.70
2022-08-26T03:52:10.477Z,22.70
2022-08-26T03:54:55.848Z,22.40
2022-08-26T03:57:42.376Z,22.50
2022-08-26T04:00:28.969Z,23.60
2022-08-26T04:03:34.466Z,22.90
2022-08-26T04:06:19.994Z,22.50
2022-08-26T04:09:19.679Z,22.50
2022-08-26T04:12:06.503Z,22.70
2022-08-26T04:14:53.004Z,22.30
2022-08-26T04:17:39.641Z,22.10
2022-08-26T04:20:26.213Z,22.60
2022-08-26T04:23:11.934Z,22.60
2022-08-26T04:25:57.934Z,22.60
2022-08-26T04:28:44.175Z,22.50
2022-08-26T04:31:30.978Z,22.80
2022-08-26T04:34:17.690Z,22.20
2022-08-26T04:37:03.994Z,22.50
2022-08-26T04:39:53.372Z,22.20
2022-08-26T04:42:39.041Z,23.20
2022-08-26T04:45:25.239Z,22.20
2022-08-26T04:48:11.364Z,22.10
2022-08-26T04:50:57.460Z,22.40
2022-08-26T04:53:44.432Z,23.10
2022-08-26T04:56:34.017Z,22.40
2022-08-26T04:59:19.803Z,22.90
2022-08-26T05:02:06.762Z,22.50
2022-08-26T05:04:52.509Z,22.30
2022-08-26T05:07:38.522Z,23.10
2022-08-26T05:10:24.410Z,22.30
2022-08-26T05:13:12.637Z,22.10
2022-08-26T05:16:05.967Z,22.60
2022-08-26T05:18:53.941Z,23.10
2022-08-26T05:27:14.328Z,22.60
2022-08-26T05:30:00.189Z,22.40
2022-08-26T05:32:55.138Z,22.90
2022-08-26T05:35:42.173Z,22.80
2022-08-26T05:38:30.208Z,22.70
2022-08-26T05:41:34.289Z,22.70
2022-08-26T05:44:22.454Z,23.80
2022-08-26T05:47:08.168Z,23.40
2022-08-26T05:49:56.082Z,24.00
2022-08-26T05:52:42.698Z,24.70
2022-08-26T05:55:28.773Z,25.20
2022-08-26T05:58:15.607Z,25.70
2022-08-26T06:01:08.612Z,25.50
2022-08-26T06:03:59.652Z,24.40
2022-08-26T06:09:37.370Z,25.10
2022-08-26T06:15:12.898Z,25.20
2022-08-26T06:20:57.070Z,25.70
2022-08-26T06:24:04.956Z,25.90
2022-08-26T06:26:54.969Z,25.70
2022-08-26T06:32:27.548Z,26.70
2022-08-26T06:38:00.355Z,27.10
2022-08-26T06:40:49.062Z,27.60
2022-08-26T06:43:36.178Z,27.70
2022-08-26T06:46:23.177Z,27.50
2022-08-26T06:49:12.886Z,28.00
2022-08-26T06:51:58.918Z,27.90
2022-08-26T06:54:45.071Z,28.10
2022-08-26T06:57:32.919Z,28.00
2022-08-26T07:00:21.697Z,27.50
2022-08-26T07:03:08.748Z,28.70
2022-08-26T07:06:01.862Z,28.70
2022-08-26T07:08:51.313Z,28.70
2022-08-26T07:11:39.044Z,29.00
2022-08-26T07:14:26.364Z,29.30
2022-08-26T07:17:13.911Z,29.10
2022-08-26T07:20:00.536Z,29.80
2022-08-26T07:22:46.001Z,29.40
2022-08-26T07:28:17.645Z,29.80
2022-08-26T07:31:12.248Z,29.90
2022-08-26T07:33:58.119Z,30.20
2022-08-26T07:39:32.867Z,30.60
2022-08-26T07:42:20.417Z,30.60
2022-08-26T07:45:07.017Z,30.80
2022-08-26T07:47:52.929Z,30.40
2022-08-26T07:50:50.256Z,30.40
2022-08-26T07:53:37.334Z,31.00
2022-08-26T07:59:13.669Z,30.70
2022-08-26T08:13:17.190Z,31.20
2022-08-26T08:16:05.016Z,31.40
2022-08-26T08:18:50.754Z,31.90
2022-08-26T08:24:22.462Z,31.60
2022-08-26T08:27:09.161Z,31.60
2022-08-26T08:32:46.235Z,31.80
2022-08-26T08:41:04.852Z,32.70
2022-08-26T08:43:52.502Z,32.10
2022-08-26T08:46:40.027Z,32.60
2022-08-26T08:49:42.618Z,32.30
2022-08-26T08:52:32.669Z,31.70
2022-08-26T08:55:19.245Z,31.90
2022-08-26T08:58:13.501Z,32.60
2022-08-26T09:01:04.987Z,32.40
2022-08-26T09:04:04.368Z,33.10
2022-08-26T09:06:54.625Z,32.60
2022-08-26T09:09:55.779Z,32.30
2022-08-26T09:12:43.320Z,32.80
2022-08-26T09:16:02.526Z,32.40
2022-08-26T09:19:19.018Z,31.80
2022-08-26T09:27:50.527Z,31.70
2022-08-26T09:33:30.057Z,31.50
2022-08-26T09:36:45.571Z,31.60
2022-08-26T09:39:37.565Z,31.50
2022-08-26T09:42:25.410Z,31.00
2022-08-26T09:45:12.834Z,31.10
2022-08-26T09:48:01.212Z,31.60
2022-08-26T09:50:55.405Z,31.50
2022-08-26T09:53:54.441Z,30.90
2022-08-26T09:59:30.772Z,30.90
2022-08-26T10:02:37.049Z,30.40
2022-08-26T10:05:37.501Z,29.60
2022-08-26T10:08:42.601Z,30.40
2022-08-26T10:11:51.804Z,30.60
2022-08-26T10:14:52.026Z,30.70
2022-08-26T10:17:46.799Z,30.30
2022-08-26T10:20:37.700Z,29.50
2022-08-26T10:23:27.518Z,30.10
2022-08-26T10:26:46.077Z,30.40
2022-08-26T10:29:39.651Z,30.20
2022-08-26T10:32:41.274Z,30.40
2022-08-26T10:35:29.147Z,30.50
2022-08-26T10:38:20.165Z,30.20
2022-08-26T10:41:17.005Z,30.10
2022-08-26T10:44:07.218Z,30.20
2022-08-26T10:47:01.613Z,30.30
2022-08-26T10:49:50.382Z,30.40
2022-08-26T10:52:51.340Z,30.50
2022-08-26T10:55:41.214Z,30.40
2022-08-26T10:58:36.026Z,30.60
2022-08-26T11:01:43.550Z,30.40
2022-08-26T11:04:48.370Z,30.80
2022-08-26T11:07:46.629Z,30.90
2022-08-26T11:10:59.272Z,30.70
2022-08-26T11:13:59.464Z,31.10
2022-08-26T11:16:53.352Z,31.00
2022-08-26T11:25:38.865Z,30.80
2022-08-26T11:28:34.586Z,31.20
2022-08-26T11:31:27.074Z,30.50
2022-08-26T11:34:14.191Z,30.50
2022-08-26T11:37:01.449Z,30.90
2022-08-26T11:39:55.341Z,31.30
2022-08-26T11:42:50.572Z,30.80
2022-08-26T11:45:39.309Z,31.20
2022-08-26T11:48:35.865Z,31.50
2022-08-26T11:54:30.561Z,31.10
2022-08-26T12:03:08.382Z,30.90
2022-08-26T12:05:55.185Z,30.70
2022-08-26T12:08:44.116Z,30.10
2022-08-26T12:11:32.978Z,31.20
2022-08-26T12:14:27.819Z,32.10
2022-08-26T12:17:27.790Z,31.60
2022-08-26T12:20:21.253Z,30.60
2022-08-26T12:23:07.583Z,31.90
2022-08-26T12:26:07.544Z,31.40
2022-08-26T12:29:19.717Z,31.00
2022-08-26T12:32:12.338Z,31.10
2022-08-26T12:34:58.542Z,31.80
2022-08-26T12:37:48.904Z,31.30
2022-08-26T12:40:44.888Z,31.60
2022-08-26T12:43:48.928Z,31.10
2022-08-26T12:46:34.875Z,30.50
2022-08-26T12:49:20.684Z,30.10
2022-08-26T12:52:09.699Z,30.90
2022-08-26T12:55:02.460Z,31.00
2022-08-26T12:57:48.430Z,31.50
2022-08-26T13:00:37.210Z,30.90
2022-08-26T13:03:30.864Z,31.10
2022-08-26T13:09:29.958Z,30.90
2022-08-26T13:12:28.449Z,31.10
2022-08-26T13:15:14.374Z,31.30
2022-08-26T13:18:00.213Z,31.00
2022-08-26T13:23:32.357Z,31.40
2022-08-26T13:26:18.776Z,31.00
2022-08-26T13:29:10.029Z,32.10
2022-08-26T13:34:51.052Z,30.80
2022-08-26T13:43:10.349Z,31.90
2022-08-26T13:45:56.681Z,31.30
2022-08-26T13:48:42.113Z,31.10
2022-08-26T13:51:31.289Z,31.50
2022-08-26T13:54:17.316Z,31.80
2022-08-26T13:57:03.262Z,31.40
2022-08-26T13:59:48.931Z,31.10
2022-08-26T14:02:34.900Z,31.30
2022-08-26T14:08:08.550Z,32.00
2022-08-26T14:10:55.174Z,31.50
2022-08-26T14:16:33.201Z,31.70
2022-08-26T14:19:19.028Z,32.00
2022-08-26T14:22:09.953Z,32.00
2022-08-26T14:24:56.529Z,32.10
2022-08-26T14:30:28.712Z,31.60
2022-08-26T14:33:15.107Z,31.90
2022-08-26T14:36:19.875Z,31.40
2022-08-26T14:39:09.389Z,30.40
2022-08-26T14:41:56.972Z,31.60
2022-08-26T14:44:45.791Z,30.50
2022-08-26T14:47:31.253Z,30.80
2022-08-26T14:50:19.784Z,31.30
2022-08-26T14:53:23.719Z,30.90
2022-08-26T14:56:12.684Z,30.70
2022-08-26T14:59:01.781Z,30.50
2022-08-26T15:04:34.714Z,30.40
2022-08-26T15:10:08.601Z,30.50
2022-08-26T15:12:54.493Z,29.60
2022-08-26T15:21:13.102Z,30.70
2022-08-26T15:26:47.427Z,30.40
2022-08-26T15:29:36.220Z,30.20
2022-08-26T15:37:55.431Z,30.50
2022-08-26T15:40:41.347Z,30.20
2022-08-26T15:43:29.086Z,30.00
2022-08-26T15:46:15.253Z,30.20
2022-08-26T15:49:01.786Z,30.10
2022-08-26T15:51:50.556Z,30.00
2022-08-26T15:54:36.495Z,29.90
2022-08-26T16:00:09.737Z,29.70
2022-08-26T16:02:58.613Z,28.90
2022-08-26T16:05:44.946Z,30.20
2022-08-26T16:08:30.946Z,29.50
2022-08-26T16:14:09.258Z,29.60
2022-08-26T16:16:56.567Z,29.60
2022-08-26T16:19:42.551Z,28.70
2022-08-26T16:25:14.849Z,29.10
2022-08-26T16:28:00.729Z,29.00
2022-08-26T16:30:52.650Z,29.60
2022-08-26T16:33:39.007Z,29.40
2022-08-26T16:44:45.534Z,29.90
2022-08-26T16:47:31.718Z,28.10
2022-08-26T16:50:19.473Z,29.80
2022-08-26T16:55:51.670Z,29.00
2022-08-26T16:58:37.752Z,29.00
2022-08-26T17:01:24.430Z,28.60
2022-08-26T17:12:29.242Z,29.00
2022-08-26T17:15:16.260Z,28.70
2022-08-26T17:18:02.111Z,28.60
2022-08-26T17:23:35.371Z,29.00
2022-08-26T17:26:21.276Z,28.70
2022-08-26T17:34:39.278Z,28.40
2022-08-26T17:37:25.316Z,28.30
2022-08-26T17:40:15.449Z,28.70
2022-08-26T17:45:48.115Z,28.40
2022-08-26T17:48:34.463Z,28.40
2022-08-26T17:51:22.708Z,28.60
2022-08-26T17:54:09.194Z,28.20
2022-08-26T17:56:54.999Z,27.60
2022-08-26T18:05:17.529Z,28.10
2022-08-26T18:08:03.825Z,27.90
2022-08-26T18:10:49.918Z,28.00
2022-08-26T18:13:35.642Z,27.80
2022-08-26T18:16:21.824Z,27.80
2022-08-26T18:19:08.470Z,27.90
2022-08-26T18:24:40.153Z,28.10
2022-08-26T18:27:41.856Z,27.30
2022-08-26T18:33:14.727Z,27.80
2022-08-26T18:36:01.628Z,27.40
2022-08-26T18:38:50.279Z,27.70
2022-08-26T18:41:45.829Z,27.60
2022-08-26T18:50:04.555Z,26.60
2022-08-26T18:52:50.261Z,27.30
2022-08-26T18:55:35.941Z,27.60
2022-08-26T18:58:21.659Z,27.30
2022-08-26T19:01:07.670Z,27.30
2022-08-26T19:03:53.368Z,27.30
2022-08-26T19:06:40.313Z,27.40
2022-08-26T19:09:26.737Z,27.30
2022-08-26T19:12:13.353Z,27.10
2022-08-26T19:20:35.130Z,26.90
2022-08-26T19:26:18.464Z,27.00
2022-08-26T19:29:04.172Z,27.00
2022-08-26T19:40:08.317Z,27.00
2022-08-26T19:42:54.682Z,26.70
2022-08-26T19:45:40.650Z,26.80
2022-08-26T19:48:26.263Z,26.80
2022-08-26T19:51:18.132Z,26.80
2022-08-26T19:54:04.455Z,26.70
2022-08-26T19:56:50.318Z,27.00
2022-08-26T19:59:36.473Z,26.40
2022-08-26T20:02:22.235Z,26.50
2022-08-26T20:05:10.060Z,26.50
2022-08-26T20:07:56.063Z,26.10
2022-08-26T20:10:41.819Z,26.60
2022-08-26T20:16:16.438Z,26.50
2022-08-26T20:22:07.009Z,26.20
2022-08-26T20:30:24.962Z,26.20
2022-08-26T20:33:10.454Z,26.20
2022-08-26T20:41:28.943Z,25.90
2022-08-26T20:44:16.606Z,26.30
2022-08-26T20:47:02.405Z,26.40
2022-08-26T20:55:25.741Z,26.30
2022-08-26T21:00:58.365Z,26.10
2022-08-26T21:06:30.741Z,26.30
2022-08-26T21:09:18.309Z,26.30
2022-08-26T21:12:04.028Z,26.20
2022-08-26T21:14:49.932Z,26.20
2022-08-26T21:20:21.869Z,26.10
2022-08-26T21:25:54.373Z,26.10
2022-08-26T21:28:42.827Z,25.90
2022-08-26T21:31:29.764Z,26.00
2022-08-26T21:34:17.853Z,26.00
2022-08-26T21:37:03.314Z,26.00
2022-08-26T21:39:57.089Z,25.90
2022-08-26T21:42:42.671Z,25.80
2022-08-26T21:48:14.899Z,25.70
2022-08-26T21:56:39.572Z,25.60
2022-08-26T21:59:25.649Z,25.70
2022-08-26T22:02:11.595Z,25.60
2022-08-26T22:07:43.742Z,25.50
2022-08-26T22:13:15.705Z,25.40
2022-08-26T22:16:01.805Z,25.40
2022-08-26T22:21:35.272Z,25.50
2022-08-26T22:24:23.600Z,25.30
2022-08-26T22:27:09.197Z,25.80
2022-08-26T22:29:55.134Z,25.30
2022-08-26T22:32:41.116Z,25.30
2022-08-26T22:38:16.290Z,25.20
2022-08-26T22:41:04.378Z,25.20
2022-08-26T22:46:41.668Z,25.20
2022-08-26T22:49:27.385Z,25.20
2022-08-26T22:52:12.904Z,25.10
2022-08-26T22:57:44.882Z,25.60
2022-08-26T23:03:18.655Z,25.10
2022-08-26T23:06:10.072Z,25.00
2022-08-26T23:08:55.761Z,25.00
2022-08-26T23:11:43.281Z,25.00
2022-08-26T23:14:28.705Z,25.00
2022-08-26T23:17:14.830Z,24.80
2022-08-26T23:20:00.946Z,25.20
2022-08-26T23:22:46.768Z,24.90
2022-08-26T23:28:20.854Z,24.90
2022-08-26T23:31:06.988Z,25.50
2022-08-26T23:37:00.116Z,24.90
2022-08-26T23:39:46.738Z,25.00
2022-08-26T23:42:32.489Z,25.10
2022-08-26T23:48:06.084Z,24.90
2022-08-26T23:51:10.278Z,25.10
